createdAt,value
2016-05-09T00:00:35.543Z,19.61
2016-05-09T00:01:35.156Z,19.61
2016-05-09T00:02:35.207Z,19.58
2016-05-09T00:03:35.506Z,19.68
2016-05-09T00:04:35.415Z,19.58
2016-05-09T00:05:35.261Z,19.58
2016-05-09T00:06:35.889Z,19.61
2016-05-09T00:07:35.392Z,19.54
2016-05-09T00:08:36.066Z,19.43
2016-05-09T00:09:35.662Z,19.6
2016-05-09T00:10:35.009Z,19.58
2016-05-09T00:11:35.245Z,19.4
2016-05-09T00:12:36.170Z,19.4
2016-05-09T00:13:35.126Z,19.51
2016-05-09T00:14:35.426Z,19.48
2016-05-09T00:15:35.397Z,19.48
2016-05-09T00:16:48.837Z,19.47
2016-05-09T00:17:35.121Z,19.42
2016-05-09T00:18:35.155Z,19.42
2016-05-09T00:19:35.627Z,19.42
2016-05-09T00:20:34.864Z,19.36
2016-05-09T00:21:34.867Z,19.42
2016-05-09T00:22:35.244Z,19.36
2016-05-09T00:23:34.966Z,19.31
2016-05-09T00:24:35.640Z,19.36
2016-05-09T00:25:34.565Z,19.39
2016-05-09T00:26:35.738Z,19.39
2016-05-09T00:27:35.071Z,19.32
2016-05-09T00:28:36.182Z,19.29
2016-05-09T00:29:34.544Z,19.21
2016-05-09T00:30:35.625Z,19.28
2016-05-09T00:31:35.018Z,19.24
2016-05-09T00:32:34.959Z,19.2
2016-05-09T00:33:35.555Z,19.17
2016-05-09T00:34:35.057Z,19.18
2016-05-09T00:35:34.857Z,19.17
2016-05-09T00:36:34.923Z,19.18
2016-05-09T00:37:34.690Z,19.18
2016-05-09T00:38:34.475Z,19.14
2016-05-09T00:39:35.431Z,19.13
2016-05-09T00:40:34.449Z,19.11
2016-05-09T00:41:34.498Z,19.11
2016-05-09T00:42:35.564Z,19.1
2016-05-09T00:43:35.582Z,19.06
2016-05-09T00:44:34.945Z,19.06
2016-05-09T00:45:34.414Z,19.02
2016-05-09T00:46:34.653Z,19.02
2016-05-09T00:47:34.561Z,18.99
2016-05-09T00:48:34.845Z,18.98
2016-05-09T00:49:34.972Z,18.97
2016-05-09T00:50:34.914Z,18.95
2016-05-09T00:51:34.041Z,18.99
2016-05-09T00:52:34.559Z,18.87
2016-05-09T00:53:34.046Z,18.95
2016-05-09T00:54:34.033Z,18.92
2016-05-09T00:55:34.536Z,18.86
2016-05-09T00:56:34.304Z,18.97
2016-05-09T00:57:34.213Z,18.84
2016-05-09T00:58:34.450Z,18.9
2016-05-09T00:59:34.219Z,18.86
2016-05-09T01:00:34.721Z,18.94
2016-05-09T01:01:34.365Z,18.91
2016-05-09T01:02:34.102Z,18.91
2016-05-09T01:03:34.417Z,18.9
2016-05-09T01:04:34.763Z,18.9
2016-05-09T01:05:34.579Z,18.87
2016-05-09T01:06:34.018Z,18.84
2016-05-09T01:07:34.084Z,18.86
2016-05-09T01:08:34.461Z,18.8
2016-05-09T01:09:33.699Z,18.84
2016-05-09T01:10:34.640Z,18.84
2016-05-09T01:11:34.517Z,18.82
2016-05-09T01:12:34.816Z,18.8
2016-05-09T01:13:34.209Z,18.84
2016-05-09T01:14:33.805Z,18.8
2016-05-09T01:15:33.996Z,18.68
2016-05-09T01:16:33.859Z,18.82
2016-05-09T01:17:48.314Z,18.68
2016-05-09T01:18:34.004Z,18.7
2016-05-09T01:19:34.053Z,18.76
2016-05-09T01:20:34.009Z,18.76
2016-05-09T01:21:33.793Z,18.76
2016-05-09T01:22:33.672Z,18.79
2016-05-09T01:23:34.142Z,18.72
2016-05-09T01:24:33.708Z,18.79
2016-05-09T01:25:33.601Z,18.68
2016-05-09T01:26:33.557Z,18.67
2016-05-09T01:27:33.544Z,18.72
2016-05-09T01:28:33.656Z,18.74
2016-05-09T01:29:33.783Z,18.65
2016-05-09T01:30:33.615Z,18.74
2016-05-09T01:31:33.867Z,18.65
2016-05-09T01:32:33.666Z,18.68
2016-05-09T01:33:33.248Z,18.73
2016-05-09T01:34:33.407Z,18.7
2016-05-09T01:35:33.987Z,18.65
2016-05-09T01:36:33.959Z,18.7
2016-05-09T01:37:33.320Z,18.72
2016-05-09T01:38:34.183Z,18.65
2016-05-09T01:39:33.296Z,18.68
2016-05-09T01:40:34.313Z,18.72
2016-05-09T01:41:33.566Z,18.62
2016-05-09T01:42:33.256Z,18.61
2016-05-09T01:43:33.305Z,18.55
2016-05-09T01:44:33.528Z,18.54
2016-05-09T01:45:33.326Z,18.59
2016-05-09T01:46:33.376Z,18.57
2016-05-09T01:47:33.114Z,18.64
2016-05-09T01:48:33.131Z,18.62
2016-05-09T01:49:34.087Z,18.58
2016-05-09T01:50:33.168Z,18.59
2016-05-09T01:51:33.250Z,18.5
2016-05-09T01:52:32.939Z,18.52
2016-05-09T01:53:32.927Z,18.55
2016-05-09T01:54:32.991Z,18.55
2016-05-09T01:55:32.963Z,18.54
2016-05-09T01:56:33.075Z,18.55
2016-05-09T01:57:32.969Z,18.49
2016-05-09T01:58:34.252Z,18.42
2016-05-09T01:59:33.224Z,18.42
2016-05-09T02:00:32.741Z,18.42
2016-05-09T02:01:32.916Z,18.43
2016-05-09T02:02:32.810Z,18.4
2016-05-09T02:03:32.641Z,18.4
2016-05-09T02:04:32.878Z,18.36
2016-05-09T02:05:32.990Z,18.39
2016-05-09T02:06:32.742Z,18.27
2016-05-09T02:07:32.917Z,18.34
2016-05-09T02:08:33.202Z,18.27
2016-05-09T02:09:33.095Z,18.24
2016-05-09T02:10:33.957Z,18.28
2016-05-09T02:11:32.662Z,18.24
2016-05-09T02:12:32.962Z,18.19
2016-05-09T02:13:32.526Z,18.18
2016-05-09T02:14:32.437Z,18.17
2016-05-09T02:15:32.595Z,18.18
2016-05-09T02:16:33.035Z,18.21
2016-05-09T02:17:34.366Z,18.17
2016-05-09T02:18:33.572Z,18.1
2016-05-09T02:19:32.980Z,18.1
2016-05-09T02:20:32.624Z,18.06
2016-05-09T02:21:32.595Z,18.02
2016-05-09T02:22:32.551Z,18.12
2016-05-09T02:23:32.357Z,18.07
2016-05-09T02:24:32.469Z,18.1
2016-05-09T02:25:33.393Z,18.1
2016-05-09T02:26:32.897Z,18.07
2016-05-09T02:27:32.166Z,18.09
2016-05-09T02:28:33.559Z,18.06
2016-05-09T02:29:32.576Z,18.06
2016-05-09T02:30:32.360Z,18.09
2016-05-09T02:31:32.176Z,18.02
2016-05-09T02:32:32.257Z,17.99
2016-05-09T02:33:32.354Z,17.94
2016-05-09T02:34:32.762Z,17.92
2016-05-09T02:35:32.421Z,17.94
2016-05-09T02:36:32.033Z,17.88
2016-05-09T02:37:32.333Z,17.84
2016-05-09T02:38:32.148Z,17.87
2016-05-09T02:39:32.229Z,17.88
2016-05-09T02:40:32.247Z,17.94
2016-05-09T02:41:32.094Z,17.99
2016-05-09T02:42:32.050Z,17.95
2016-05-09T02:43:32.224Z,17.89
2016-05-09T02:44:31.852Z,17.89
2016-05-09T02:45:31.808Z,17.88
2016-05-09T02:46:31.966Z,17.87
2016-05-09T02:47:32.750Z,17.89
2016-05-09T02:48:32.144Z,17.91
2016-05-09T02:49:31.975Z,17.88
2016-05-09T02:50:31.930Z,17.89
2016-05-09T02:51:32.308Z,17.89
2016-05-09T02:52:32.404Z,17.87
2016-05-09T02:53:32.329Z,17.94
2016-05-09T02:54:32.612Z,17.92
2016-05-09T02:55:32.194Z,17.88
2016-05-09T02:56:31.634Z,17.88
2016-05-09T02:57:32.496Z,17.92
2016-05-09T02:58:31.732Z,17.89
2016-05-09T02:59:31.721Z,17.88
2016-05-09T03:00:31.660Z,17.92
2016-05-09T03:01:31.866Z,17.87
2016-05-09T03:02:31.728Z,17.94
2016-05-09T03:03:31.496Z,17.88
2016-05-09T03:04:32.201Z,17.92
2016-05-09T03:05:32.595Z,17.88
2016-05-09T03:06:32.114Z,17.87
2016-05-09T03:07:31.523Z,17.84
2016-05-09T03:08:31.712Z,17.94
2016-05-09T03:09:32.873Z,17.87
2016-05-09T03:10:31.328Z,17.88
2016-05-09T03:11:31.955Z,17.92
2016-05-09T03:12:31.755Z,17.88
2016-05-09T03:13:31.648Z,17.95
2016-05-09T03:14:32.448Z,17.87
2016-05-09T03:15:31.731Z,17.95
2016-05-09T03:16:32.000Z,17.88
2016-05-09T03:17:31.487Z,17.88
2016-05-09T03:18:32.052Z,17.89
2016-05-09T03:19:32.039Z,17.88
2016-05-09T03:20:32.886Z,17.81
2016-05-09T03:21:31.452Z,17.87
2016-05-09T03:22:31.532Z,17.85
2016-05-09T03:23:31.597Z,17.79
2016-05-09T03:24:31.615Z,17.88
2016-05-09T03:25:31.899Z,17.85
2016-05-09T03:26:30.996Z,17.82
2016-05-09T03:27:31.389Z,17.87
2016-05-09T03:28:31.174Z,17.81
2016-05-09T03:29:31.223Z,17.78
2016-05-09T03:30:31.132Z,17.81
2016-05-09T03:31:31.118Z,17.76
2016-05-09T03:32:30.981Z,17.84
2016-05-09T03:33:30.983Z,17.74
2016-05-09T03:34:31.112Z,17.76
2016-05-09T03:35:31.082Z,17.78
2016-05-09T03:36:30.992Z,17.73
2016-05-09T03:37:31.228Z,17.73
2016-05-09T03:38:30.779Z,17.7
2016-05-09T03:39:31.031Z,17.71
2016-05-09T03:40:30.940Z,17.73
2016-05-09T03:41:31.067Z,17.7
2016-05-09T03:42:30.804Z,17.74
2016-05-09T03:43:30.806Z,17.67
2016-05-09T03:44:30.701Z,17.69
2016-05-09T03:45:30.750Z,17.7
2016-05-09T03:46:30.831Z,17.73
2016-05-09T03:47:30.833Z,17.67
2016-05-09T03:48:30.758Z,17.64
2016-05-09T03:49:37.198Z,17.69
2016-05-09T03:50:34.091Z,17.69
2016-05-09T03:51:33.578Z,17.67
2016-05-09T03:52:30.581Z,17.66
2016-05-09T03:53:30.615Z,17.7
2016-05-09T03:54:30.602Z,17.7
2016-05-09T03:55:30.636Z,17.62
2016-05-09T03:56:30.577Z,17.66
2016-05-09T03:57:30.641Z,17.57
2016-05-09T03:58:30.488Z,17.59
2016-05-09T03:59:30.506Z,17.69
2016-05-09T04:00:30.510Z,17.69
2016-05-09T04:01:30.480Z,17.63
2016-05-09T04:02:30.437Z,17.63
2016-05-09T04:03:30.423Z,17.64
2016-05-09T04:04:30.395Z,17.59
2016-05-09T04:05:30.334Z,17.63
2016-05-09T04:06:30.307Z,17.62
2016-05-09T04:07:30.356Z,17.62
2016-05-09T04:08:30.156Z,17.64
2016-05-09T04:09:30.251Z,17.62
2016-05-09T04:10:30.114Z,17.59
2016-05-09T04:11:30.288Z,17.67
2016-05-09T04:12:30.401Z,17.62
2016-05-09T04:13:30.185Z,17.55
2016-05-09T04:14:30.187Z,17.54
2016-05-09T04:15:30.127Z,17.59
2016-05-09T04:16:30.099Z,17.53
2016-05-09T04:17:30.117Z,17.59
2016-05-09T04:18:30.120Z,17.5
2016-05-09T04:19:30.076Z,17.51
2016-05-09T04:20:30.078Z,17.5
2016-05-09T04:21:30.049Z,17.48
2016-05-09T04:22:30.036Z,17.54
2016-05-09T04:23:29.821Z,17.5
2016-05-09T04:24:29.949Z,17.48
2016-05-09T04:25:29.983Z,17.53
2016-05-09T04:26:29.891Z,17.5
2016-05-09T04:27:30.019Z,17.47
2016-05-09T04:28:29.928Z,17.54
2016-05-09T04:29:29.899Z,17.43
2016-05-09T04:30:29.965Z,17.48
2016-05-09T04:31:29.811Z,17.53
2016-05-09T04:32:29.813Z,17.48
2016-05-09T04:33:29.801Z,17.44
2016-05-09T04:34:29.804Z,17.43
2016-05-09T04:35:29.915Z,17.55
2016-05-09T04:36:29.559Z,17.51
2016-05-09T04:37:29.718Z,17.62
2016-05-09T04:38:29.690Z,17.53
2016-05-09T04:39:29.629Z,17.57
2016-05-09T04:40:29.460Z,17.55
2016-05-09T04:41:29.587Z,17.63
2016-05-09T04:42:29.606Z,17.63
2016-05-09T04:43:29.609Z,17.64
2016-05-09T04:44:29.596Z,17.64
2016-05-09T04:45:29.537Z,17.66
2016-05-09T04:46:29.555Z,17.67
2016-05-09T04:47:29.463Z,17.69
2016-05-09T04:48:29.513Z,17.66
2016-05-09T04:49:29.345Z,17.73
2016-05-09T04:50:29.268Z,17.71
2016-05-09T04:51:29.459Z,17.76
2016-05-09T04:52:29.430Z,17.78
2016-05-09T04:53:29.386Z,17.76
2016-05-09T04:54:29.154Z,17.7
2016-05-09T04:55:29.345Z,17.79
2016-05-09T04:56:29.316Z,17.79
2016-05-09T04:57:29.506Z,17.76
2016-05-09T04:58:29.258Z,17.81
2016-05-09T04:59:29.246Z,17.82
2016-05-09T05:00:29.248Z,17.78
2016-05-09T05:01:29.267Z,17.79
2016-05-09T05:02:29.191Z,17.79
2016-05-09T05:03:29.022Z,17.73
2016-05-09T05:04:29.259Z,17.88
2016-05-09T05:05:29.121Z,17.87
2016-05-09T05:06:29.218Z,17.92
2016-05-09T05:07:29.080Z,17.85
2016-05-09T05:08:29.082Z,17.95
2016-05-09T05:09:29.054Z,17.92
2016-05-09T05:10:29.057Z,17.91
2016-05-09T05:11:29.028Z,17.89
2016-05-09T05:12:28.953Z,17.94
2016-05-09T05:13:28.956Z,17.97
2016-05-09T05:14:28.989Z,18.07
2016-05-09T05:15:28.914Z,18.06
2016-05-09T05:16:28.869Z,18.06
2016-05-09T05:17:29.014Z,18.02
2016-05-09T05:18:28.875Z,18.06
2016-05-09T05:19:28.847Z,18.02
2016-05-09T05:20:28.786Z,18.09
2016-05-09T05:21:28.680Z,18.06
2016-05-09T05:22:28.776Z,18.07
2016-05-09T05:23:28.592Z,18.12
2016-05-09T05:24:28.751Z,18.12
2016-05-09T05:25:28.753Z,18.12
2016-05-09T05:26:28.537Z,18.06
2016-05-09T05:27:28.665Z,18.13
2016-05-09T05:28:28.652Z,18.12
2016-05-09T05:29:28.905Z,18.12
2016-05-09T05:30:28.517Z,18.12
2016-05-09T05:31:28.629Z,18.22
2016-05-09T05:32:28.412Z,18.22
2016-05-09T05:33:28.384Z,18.17
2016-05-09T05:34:28.387Z,18.22
2016-05-09T05:35:28.546Z,18.13
2016-05-09T05:36:28.596Z,18.25
2016-05-09T05:37:28.520Z,18.29
2016-05-09T05:38:28.445Z,18.27
2016-05-09T05:39:28.478Z,18.29
2016-05-09T05:40:28.481Z,18.28
2016-05-09T05:41:28.421Z,18.22
2016-05-09T05:42:28.737Z,18.25
2016-05-09T05:43:28.348Z,18.27
2016-05-09T05:44:28.601Z,18.27
2016-05-09T05:45:28.151Z,18.29
2016-05-09T05:46:28.404Z,18.29
2016-05-09T05:47:28.125Z,18.34
2016-05-09T05:48:28.268Z,18.42
2016-05-09T05:49:28.270Z,18.37
2016-05-09T05:50:28.102Z,18.37
2016-05-09T05:51:28.182Z,18.39
2016-05-09T05:52:28.169Z,18.5
2016-05-09T05:53:28.173Z,18.49
2016-05-09T05:54:28.175Z,18.47
2016-05-09T05:55:28.006Z,18.52
2016-05-09T05:56:28.305Z,18.52
2016-05-09T05:57:28.105Z,18.58
2016-05-09T05:58:41.826Z,18.58
2016-05-09T05:59:28.344Z,18.61
2016-05-09T06:00:28.031Z,18.58
2016-05-09T06:01:28.094Z,18.72
2016-05-09T06:02:28.186Z,18.73
2016-05-09T06:03:28.108Z,18.72
2016-05-09T06:04:28.218Z,18.76
2016-05-09T06:05:28.127Z,18.79
2016-05-09T06:06:27.958Z,18.84
2016-05-09T06:07:28.131Z,18.82
2016-05-09T06:08:28.150Z,18.9
2016-05-09T06:09:27.966Z,18.9
2016-05-09T06:10:28.130Z,18.92
2016-05-09T06:11:27.935Z,18.97
2016-05-09T06:12:28.085Z,18.87
2016-05-09T06:13:28.193Z,18.83
2016-05-09T06:14:28.294Z,18.91
2016-05-09T06:15:28.034Z,18.98
2016-05-09T06:16:28.069Z,18.92
2016-05-09T06:17:28.043Z,19.02
2016-05-09T06:18:28.001Z,19.06
2016-05-09T06:19:27.880Z,19.1
2016-05-09T06:20:28.023Z,19.13
2016-05-09T06:21:28.402Z,19.14
2016-05-09T06:22:27.874Z,19.18
2016-05-09T06:23:28.033Z,19.18
2016-05-09T06:24:27.881Z,19.14
2016-05-09T06:25:27.931Z,19.25
2016-05-09T06:26:27.965Z,19.28
2016-05-09T06:27:27.781Z,19.25
2016-05-09T06:28:27.642Z,19.25
2016-05-09T06:29:27.911Z,19.32
2016-05-09T06:30:27.945Z,19.36
2016-05-09T06:31:27.728Z,19.28
2016-05-09T06:32:27.980Z,19.36
2016-05-09T06:33:27.671Z,19.42
2016-05-09T06:34:27.986Z,19.36
2016-05-09T06:35:27.942Z,19.42
2016-05-09T06:36:27.602Z,19.43
2016-05-09T06:37:27.713Z,19.38
2016-05-09T06:38:27.654Z,19.4
2016-05-09T06:39:27.610Z,19.47
2016-05-09T06:40:27.674Z,19.48
2016-05-09T06:41:28.755Z,19.6
2016-05-09T06:42:27.743Z,19.57
2016-05-09T06:43:27.651Z,19.63
2016-05-09T06:44:27.327Z,19.66
2016-05-09T06:45:27.329Z,19.66
2016-05-09T06:46:27.472Z,19.7
2016-05-09T06:47:27.553Z,19.7
2016-05-09T06:48:27.384Z,19.69
2016-05-09T06:49:28.043Z,19.7
2016-05-09T06:50:27.639Z,19.76
2016-05-09T06:51:27.782Z,19.88
2016-05-09T06:52:27.675Z,19.83
2016-05-09T06:53:41.084Z,19.83
2016-05-09T06:54:28.009Z,19.87
2016-05-09T06:55:27.950Z,19.9
2016-05-09T06:56:27.484Z,19.87
2016-05-09T06:57:28.095Z,19.87
2016-05-09T06:58:27.708Z,19.94
2016-05-09T06:59:28.851Z,20
2016-05-09T07:00:27.603Z,19.98
2016-05-09T07:01:27.575Z,20.03
2016-05-09T07:02:27.327Z,19.98
2016-05-09T07:03:27.580Z,20.02
2016-05-09T07:04:27.724Z,20.05
2016-05-09T07:05:28.569Z,20.08
2016-05-09T07:06:27.542Z,20.09
2016-05-09T07:07:28.091Z,20.12
2016-05-09T07:08:27.656Z,20.18
2016-05-09T07:09:27.612Z,20.16
2016-05-09T07:10:40.740Z,20.21
2016-05-09T07:11:27.305Z,20.2
2016-05-09T07:12:40.730Z,20.24
2016-05-09T07:13:27.405Z,20.27
2016-05-09T07:14:40.891Z,20.28
2016-05-09T07:15:27.754Z,20.31
2016-05-09T07:16:27.615Z,20.42
2016-05-09T07:17:28.180Z,20.38
2016-05-09T07:18:29.183Z,20.39
2016-05-09T07:19:29.295Z,20.49
2016-05-09T07:20:28.267Z,20.42
2016-05-09T07:21:27.879Z,20.47
2016-05-09T07:22:28.256Z,20.59
2016-05-09T07:23:28.650Z,20.53
2016-05-09T07:24:27.528Z,20.61
2016-05-09T07:25:40.640Z,20.69
2016-05-09T07:26:28.658Z,20.61
2016-05-09T07:27:28.379Z,20.64
2016-05-09T07:28:28.164Z,20.68
2016-05-09T07:29:27.198Z,20.69
2016-05-09T07:30:30.434Z,20.72
2016-05-09T07:31:29.108Z,20.72
2016-05-09T07:32:27.893Z,20.77
2016-05-09T07:33:27.348Z,20.83
2016-05-09T07:34:29.726Z,20.83
2016-05-09T07:35:27.495Z,20.9
2016-05-09T07:36:28.622Z,20.91
2016-05-09T07:37:28.047Z,20.91
2016-05-09T07:38:27.344Z,20.89
2016-05-09T07:39:29.771Z,20.99
2016-05-09T07:40:27.833Z,20.93
2016-05-09T07:41:27.727Z,21.01
2016-05-09T07:42:54.216Z,20.9
2016-05-09T07:43:29.732Z,20.9
2016-05-09T07:44:27.485Z,20.95
2016-05-09T07:45:27.535Z,21.01
2016-05-09T07:46:26.943Z,20.98
2016-05-09T07:47:26.430Z,21.05
2016-05-09T07:48:26.761Z,21.02
2016-05-09T07:49:28.123Z,21.08
2016-05-09T07:50:26.471Z,21.13
2016-05-09T07:51:26.274Z,21.16
2016-05-09T07:52:26.527Z,21.17
2016-05-09T07:53:26.655Z,21.2
2016-05-09T07:54:26.642Z,21.23
2016-05-09T07:55:26.372Z,21.26
2016-05-09T07:56:26.500Z,21.26
2016-05-09T07:57:27.488Z,21.26
2016-05-09T07:58:26.615Z,21.32
2016-05-09T07:59:27.353Z,21.41
2016-05-09T08:00:26.621Z,21.32
2016-05-09T08:01:26.545Z,21.41
2016-05-09T08:02:26.485Z,21.44
2016-05-09T08:03:27.363Z,21.46
2016-05-09T08:04:26.724Z,21.44
2016-05-09T08:05:27.431Z,21.54
2016-05-09T08:06:31.170Z,21.53
2016-05-09T08:07:30.248Z,21.53
2016-05-09T08:08:37.551Z,21.59
2016-05-09T08:09:28.410Z,21.59
2016-05-09T08:10:31.494Z,21.63
2016-05-09T08:11:34.168Z,21.67
2016-05-09T08:12:27.950Z,21.69
2016-05-09T08:13:26.624Z,21.74
2016-05-09T08:14:27.251Z,21.75
2016-05-09T08:15:26.489Z,21.76
2016-05-09T08:16:26.664Z,21.83
2016-05-09T08:17:26.854Z,21.83
2016-05-09T08:18:26.748Z,21.81
2016-05-09T08:19:26.547Z,21.88
2016-05-09T08:20:26.533Z,21.9
2016-05-09T08:21:26.600Z,21.81
2016-05-09T08:22:27.367Z,21.88
2016-05-09T08:23:25.432Z,21.99
2016-05-09T08:25:26.017Z,21.95
2016-05-09T08:26:25.784Z,22.04
2016-05-09T08:27:26.381Z,21.98
2016-05-09T08:28:26.289Z,22.1
2016-05-09T08:29:27.636Z,22.07
2016-05-09T08:30:25.905Z,22.1
2016-05-09T08:31:29.954Z,22.12
2016-05-09T08:32:25.285Z,22.17
2016-05-09T08:33:25.335Z,22.19
2016-05-09T08:34:25.446Z,22.19
2016-05-09T08:35:25.199Z,22.19
2016-05-09T08:36:28.671Z,22.23
2016-05-09T08:37:25.736Z,22.19
2016-05-09T08:38:25.285Z,22.29
2016-05-09T08:39:25.287Z,22.32
2016-05-09T08:40:26.181Z,22.32
2016-05-09T08:41:27.247Z,22.34
2016-05-09T08:42:25.093Z,22.43
2016-05-09T08:43:25.237Z,22.38
2016-05-09T08:44:25.317Z,22.38
2016-05-09T08:45:26.539Z,22.38
2016-05-09T08:46:25.213Z,22.5
2016-05-09T08:47:25.262Z,22.44
2016-05-09T08:48:25.281Z,22.52
2016-05-09T08:49:25.550Z,22.5
2016-05-09T08:50:25.270Z,22.47
2016-05-09T08:51:25.336Z,22.54
2016-05-09T08:52:25.339Z,22.59
2016-05-09T08:53:25.373Z,22.57
2016-05-09T08:54:25.813Z,22.53
2016-05-09T08:55:39.115Z,22.68
2016-05-09T08:56:25.444Z,22.57
2016-05-09T08:57:25.336Z,22.64
2016-05-09T08:58:25.027Z,22.72
2016-05-09T08:59:25.061Z,22.69
2016-05-09T09:00:24.938Z,22.77
2016-05-09T09:01:25.816Z,22.68
2016-05-09T09:02:27.225Z,22.68
2016-05-09T09:03:25.665Z,22.72
2016-05-09T09:05:25.983Z,22.71
2016-05-09T09:06:25.860Z,22.69
2016-05-09T09:07:27.613Z,22.71
2016-05-09T09:08:34.178Z,22.75
2016-05-09T09:09:26.135Z,22.72
2016-05-09T09:10:24.981Z,22.74
2016-05-09T09:11:24.764Z,22.77
2016-05-09T09:12:26.048Z,22.77
2016-05-09T09:13:25.161Z,22.77
2016-05-09T09:14:25.382Z,22.8
2016-05-09T09:15:24.635Z,22.87
2016-05-09T09:16:24.935Z,22.89
2016-05-09T09:17:24.765Z,22.87
2016-05-09T09:18:24.799Z,22.83
2016-05-09T09:19:25.240Z,22.94
2016-05-09T09:20:24.851Z,22.97
2016-05-09T09:21:25.495Z,22.93
2016-05-09T09:22:24.763Z,22.93
2016-05-09T09:23:27.703Z,23.02
2016-05-09T09:24:24.565Z,22.96
2016-05-09T09:25:24.662Z,22.99
2016-05-09T09:26:24.664Z,22.96
2016-05-09T09:27:28.886Z,23.07
2016-05-09T09:28:26.420Z,23.12
2016-05-09T09:29:24.578Z,23.12
2016-05-09T09:30:26.597Z,23.12
2016-05-09T09:31:26.724Z,23.15
2016-05-09T09:33:28.355Z,23.2
2016-05-09T09:34:38.252Z,23.17
2016-05-09T09:35:24.783Z,23.17
2016-05-09T09:36:24.238Z,23.15
2016-05-09T09:37:24.444Z,23.32
2016-05-09T09:38:24.541Z,23.29
2016-05-09T09:39:24.840Z,23.29
2016-05-09T09:40:25.171Z,23.29
2016-05-09T09:41:25.033Z,23.31
2016-05-09T09:42:24.332Z,23.34
2016-05-09T09:43:24.991Z,23.32
2016-05-09T09:44:24.806Z,23.31
2016-05-09T09:45:37.984Z,23.4
2016-05-09T09:46:23.953Z,23.4
2016-05-09T09:47:24.189Z,23.38
2016-05-09T09:48:24.162Z,23.5
2016-05-09T09:49:24.742Z,23.49
2016-05-09T09:50:24.651Z,23.49
2016-05-09T09:51:24.200Z,23.52
2016-05-09T09:52:38.409Z,23.55
2016-05-09T09:53:24.206Z,23.57
2016-05-09T09:54:38.274Z,23.55
2016-05-09T09:55:25.759Z,23.52
2016-05-09T09:56:26.511Z,23.53
2016-05-09T09:57:24.873Z,23.55
2016-05-09T09:58:24.610Z,23.55
2016-05-09T09:59:24.597Z,23.58
2016-05-09T10:00:24.255Z,23.58
2016-05-09T10:01:37.793Z,23.53
2016-05-09T10:02:24.293Z,23.53
2016-05-09T10:04:24.111Z,23.67
2016-05-09T10:05:23.973Z,23.62
2016-05-09T10:06:27.538Z,23.65
2016-05-09T10:07:24.196Z,23.7
2016-05-09T10:08:23.777Z,23.75
2016-05-09T10:09:24.640Z,23.68
2016-05-09T10:10:24.470Z,23.7
2016-05-09T10:11:24.660Z,23.65
2016-05-09T10:12:24.085Z,23.71
2016-05-09T10:13:28.166Z,23.7
2016-05-09T10:14:24.060Z,23.72
2016-05-09T10:15:23.890Z,23.77
2016-05-09T10:16:29.315Z,23.75
2016-05-09T10:17:25.490Z,23.71
2016-05-09T10:18:24.476Z,23.83
2016-05-09T10:19:25.729Z,23.8
2016-05-09T10:20:23.685Z,23.77
2016-05-09T10:21:24.890Z,23.86
2016-05-09T10:23:23.521Z,23.86
2016-05-09T10:24:24.148Z,23.9
2016-05-09T10:25:24.636Z,23.83
2016-05-09T10:26:23.701Z,24.02
2016-05-09T10:27:23.609Z,23.85
2016-05-09T10:28:23.566Z,23.95
2016-05-09T10:29:38.319Z,23.89
2016-05-09T10:30:37.884Z,23.94
2016-05-09T10:31:23.308Z,23.92
2016-05-09T10:32:24.717Z,23.94
2016-05-09T10:33:23.688Z,23.94
2016-05-09T10:34:27.254Z,23.97
2016-05-09T10:35:23.381Z,23.9
2016-05-09T10:36:24.666Z,24.04
2016-05-09T10:37:23.918Z,23.95
2016-05-09T10:38:23.874Z,24.01
2016-05-09T10:40:23.504Z,23.95
2016-05-09T10:41:25.397Z,23.94
2016-05-09T10:43:23.747Z,23.92
2016-05-09T10:44:23.796Z,23.95
2016-05-09T10:45:23.658Z,23.98
2016-05-09T10:46:23.332Z,24.04
2016-05-09T10:47:23.695Z,24.01
2016-05-09T10:48:23.260Z,24.05
2016-05-09T10:49:23.498Z,24.12
2016-05-09T10:50:23.500Z,24.12
2016-05-09T10:51:23.174Z,24.08
2016-05-09T10:52:26.333Z,24.13
2016-05-09T10:53:37.476Z,24.12
2016-05-09T10:54:27.698Z,24.14
2016-05-09T10:55:27.045Z,24.16
2016-05-09T10:56:22.720Z,24.12
2016-05-09T10:57:24.425Z,24.19
2016-05-09T10:58:24.225Z,24.17
2016-05-09T10:59:24.758Z,24.17
2016-05-09T11:01:23.811Z,24.2
2016-05-09T11:02:24.250Z,24.19
2016-05-09T11:03:23.753Z,24.19
2016-05-09T11:04:23.741Z,24.22
2016-05-09T11:05:27.211Z,24.2
2016-05-09T11:06:23.839Z,24.16
2016-05-09T11:07:24.452Z,24.27
2016-05-09T11:08:23.470Z,24.29
2016-05-09T11:09:24.597Z,24.27
2016-05-09T11:11:22.743Z,24.31
2016-05-09T11:12:23.527Z,24.27
2016-05-09T11:13:24.938Z,24.22
2016-05-09T11:14:24.190Z,24.24
2016-05-09T11:15:27.333Z,24.2
2016-05-09T11:16:23.241Z,24.26
2016-05-09T11:17:23.415Z,24.37
2016-05-09T11:18:24.746Z,24.31
2016-05-09T11:19:24.046Z,24.38
2016-05-09T11:20:25.112Z,24.35
2016-05-09T11:21:23.754Z,24.44
2016-05-09T11:22:23.507Z,24.39
2016-05-09T11:23:22.964Z,24.42
2016-05-09T11:24:27.279Z,24.42
2016-05-09T11:26:23.753Z,24.49
2016-05-09T11:27:22.693Z,24.44
2016-05-09T11:28:22.696Z,24.47
2016-05-09T11:29:23.339Z,24.45
2016-05-09T11:30:23.935Z,24.47
2016-05-09T11:31:27.454Z,24.52
2016-05-09T11:32:23.034Z,24.53
2016-05-09T11:33:39.616Z,24.53
2016-05-09T11:34:36.039Z,24.56
2016-05-09T11:35:22.574Z,24.54
2016-05-09T11:36:22.811Z,24.54
2016-05-09T11:37:23.361Z,24.64
2016-05-09T11:38:23.208Z,24.75
2016-05-09T11:39:23.382Z,24.71
2016-05-09T11:40:24.025Z,24.79
2016-05-09T11:41:23.591Z,24.75
2016-05-09T11:42:22.874Z,24.71
2016-05-09T11:43:30.439Z,24.8
2016-05-09T11:44:24.208Z,24.8
2016-05-09T11:45:22.304Z,24.82
2016-05-09T11:46:25.588Z,24.85
2016-05-09T11:47:22.387Z,24.87
2016-05-09T11:48:22.735Z,24.88
2016-05-09T11:49:22.330Z,25.01
2016-05-09T11:50:35.692Z,25.16
2016-05-09T11:51:22.148Z,25.27
2016-05-09T11:52:27.370Z,25.32
2016-05-09T11:53:22.091Z,25.34
2016-05-09T12:01:31.878Z,25.94
2016-05-09T12:02:32.115Z,25.82
2016-05-09T12:03:45.325Z,26.81
2016-05-09T12:04:45.686Z,28.28
2016-05-09T12:05:45.063Z,30.69
2016-05-09T12:06:31.860Z,30.87
2016-05-09T12:07:31.285Z,31.23
2016-05-09T12:08:31.789Z,31.54
2016-05-09T12:09:31.244Z,30.36
2016-05-09T12:10:31.277Z,29.75
2016-05-09T12:11:31.061Z,29.28
2016-05-09T12:12:31.235Z,28.9
2016-05-09T12:13:31.208Z,28.73
2016-05-09T12:14:30.976Z,28.65
2016-05-09T12:15:31.244Z,28.44
2016-05-09T12:16:31.449Z,28.35
2016-05-09T12:17:30.937Z,28.14
2016-05-09T12:18:31.940Z,28.03
2016-05-09T12:19:31.052Z,27.96
2016-05-09T12:20:31.148Z,27.94
2016-05-09T12:21:30.995Z,27.94
2016-05-09T12:22:30.873Z,27.95
2016-05-09T12:23:31.188Z,28.07
2016-05-09T12:24:31.018Z,28.26
2016-05-09T12:25:30.958Z,28.69
2016-05-09T12:26:31.695Z,29.5
2016-05-09T12:27:31.011Z,30.54
2016-05-09T12:28:31.076Z,31.01
2016-05-09T12:29:31.938Z,30.94
2016-05-09T12:30:30.987Z,31.93
2016-05-09T12:31:31.006Z,33.67
2016-05-09T12:32:31.025Z,35.44
2016-05-09T12:33:30.809Z,36.41
2016-05-09T12:34:31.139Z,37.31
2016-05-09T12:35:30.704Z,38.49
2016-05-09T12:36:30.941Z,37.62
2016-05-09T12:37:31.350Z,38.55
2016-05-09T12:38:30.775Z,36.7
2016-05-09T12:39:30.761Z,35.79
2016-05-09T12:40:30.733Z,35.21
2016-05-09T12:41:30.814Z,33.89
2016-05-09T12:42:30.911Z,33.33
2016-05-09T12:43:31.116Z,32.54
2016-05-09T12:44:32.165Z,31.85
2016-05-09T12:45:30.731Z,31.67
2016-05-09T12:46:30.703Z,31.2
2016-05-09T12:47:31.361Z,30.83
2016-05-09T12:48:30.943Z,30.84
2016-05-09T12:49:30.632Z,30.53
2016-05-09T12:50:30.605Z,30.15
2016-05-09T12:51:32.701Z,30.16
2016-05-09T12:52:30.766Z,30.11
2016-05-09T12:53:30.643Z,29.97
2016-05-09T12:54:30.567Z,30.03
2016-05-09T12:55:30.696Z,29.84
2016-05-09T12:56:30.605Z,29.77
2016-05-09T12:57:30.670Z,29.65
2016-05-09T13:07:54.215Z,28.46
2016-05-09T13:08:41.497Z,28.38
2016-05-09T13:09:39.811Z,28.33
2016-05-09T13:10:40.486Z,28.28
2016-05-09T13:11:39.847Z,28.29
2016-05-09T13:12:39.600Z,28.25
2016-05-09T13:13:39.760Z,28.14
2016-05-09T13:14:40.434Z,28.22
2016-05-09T13:15:39.812Z,28.4
2016-05-09T13:16:39.689Z,28.87
2016-05-09T13:17:39.786Z,29.81
2016-05-09T13:18:39.663Z,30.29
2016-05-09T13:19:39.667Z,30.53
2016-05-09T13:22:33.830Z,31.46
2016-05-09T13:23:06.177Z,32.37